Time;durP1;ratioP1;P1;durP2;ratioP2;P2;SDS_P1;SDS_P2;PMS_P1;PMS_P2;Temp;Humidity;BMP_temperature;BMP_pressure;BME280_temperature;BME280_humidity;BME280_pressure;Samples;Min_cycle;Max_cycle;Signal;HPM_P1;HPM_P2
2023/04/23 00:03:59;;;;;;;;;;;8.60;99.90;;;;;;8388743;28;19929;-76
2023/04/23 00:08:02;;;;;;;;;;;8.60;99.90;;;;;;8390992;28;19924;-75
2023/04/23 00:12:06;;;;;;;;;;;8.60;99.90;;;;;;8390624;28;19976;-75
2023/04/23 00:16:09;;;;;;;;;;;8.60;99.90;;;;;;8398428;28;19930;-75
2023/04/23 00:20:11;;;;;;;;;;;8.60;99.90;;;;;;8406361;28;19990;-75
2023/04/23 00:24:13;;;;;;;;;;;8.60;99.90;;;;;;8392024;28;20358;-75
2023/04/23 00:28:15;;;;;;;;;;;8.60;99.90;;;;;;8396390;28;19924;-75
2023/04/23 00:32:16;;;;;;;;;;;8.50;99.90;;;;;;8385019;28;19925;-75
2023/04/23 00:36:18;;;;;;;;;;;8.50;99.90;;;;;;8397214;28;19951;-75
2023/04/23 00:40:20;;;;;;;;;;;8.50;99.90;;;;;;8398163;28;20302;-75
2023/04/23 00:44:22;;;;;;;;;;;8.50;99.90;;;;;;8391627;28;19924;-75
2023/04/23 00:48:23;;;;;;;;;;;8.50;99.90;;;;;;8394095;28;19935;-75
2023/04/23 00:52:25;;;;;;;;;;;8.50;99.90;;;;;;8381633;28;20007;-75
2023/04/23 00:56:27;;;;;;;;;;;8.50;99.90;;;;;;8412752;28;19931;-75
2023/04/23 01:00:28;;;;;;;;;;;8.50;99.90;;;;;;8386025;28;20291;-75
2023/04/23 01:04:31;;;;;;;;;;;8.60;99.90;;;;;;8374744;28;20019;-75
2023/04/23 01:08:32;;;;;;;;;;;8.60;99.90;;;;;;8396718;28;20401;-75
2023/04/23 01:12:34;;;;;;;;;;;8.60;99.90;;;;;;8388733;28;19968;-75
2023/04/23 01:16:37;;;;;;;;;;;8.60;99.90;;;;;;8386922;28;19955;-75
2023/04/23 01:20:38;;;;;;;;;;;8.70;99.90;;;;;;8391277;28;19966;-75
2023/04/23 01:34:57;;;;;;;;;;;8.80;99.90;;;;;;8394124;28;19920;-75
2023/04/23 01:38:59;;;;;;;;;;;8.80;99.90;;;;;;8389745;28;20023;-76
2023/04/23 01:43:00;;;;;;;;;;;8.80;99.90;;;;;;8392797;28;20661;-75
2023/04/23 01:47:03;;;;;;;;;;;8.80;99.90;;;;;;8379466;28;19928;-75
2023/04/23 01:51:08;;;;;;;;;;;8.80;99.90;;;;;;8391185;28;19956;-75
2023/04/23 01:55:09;;;;;;;;;;;8.80;99.90;;;;;;8392269;28;19933;-75
2023/04/23 01:59:11;;;;;;;;;;;8.90;99.90;;;;;;8424821;28;20277;-76
2023/04/23 02:03:13;;;;;;;;;;;8.90;99.90;;;;;;8399051;28;20349;-76
2023/04/23 02:07:14;;;;;;;;;;;8.90;99.90;;;;;;8389691;28;19928;-75
2023/04/23 02:11:16;;;;;;;;;;;9.00;99.90;;;;;;8397993;28;19924;-75
2023/04/23 02:15:18;;;;;;;;;;;9.00;99.90;;;;;;8389633;28;19924;-75
2023/04/23 02:19:20;;;;;;;;;;;9.00;99.90;;;;;;8396795;28;20418;-76
2023/04/23 02:23:22;;;;;;;;;;;9.00;99.90;;;;;;8401373;28;19928;-75
2023/04/23 02:27:23;;;;;;;;;;;9.00;99.90;;;;;;8393341;28;20007;-75
2023/04/23 02:31:25;;;;;;;;;;;9.00;99.90;;;;;;8390941;28;19924;-75
2023/04/23 02:35:26;;;;;;;;;;;9.00;99.90;;;;;;8395641;28;20343;-75
2023/04/23 02:39:28;;;;;;;;;;;9.00;99.90;;;;;;8399702;28;19932;-75
2023/04/23 02:43:30;;;;;;;;;;;9.00;99.90;;;;;;8395499;28;19925;-75
2023/04/23 02:47:31;;;;;;;;;;;9.00;99.90;;;;;;8394259;28;19925;-75
2023/04/23 02:51:33;;;;;;;;;;;9.00;99.90;;;;;;8390633;28;19936;-75
2023/04/23 02:55:35;;;;;;;;;;;9.00;99.90;;;;;;8381866;28;20395;-75
2023/04/23 02:59:37;;;;;;;;;;;9.00;99.90;;;;;;8425751;28;19924;-75
2023/04/23 03:03:39;;;;;;;;;;;9.00;99.90;;;;;;8390433;28;19971;-76
2023/04/23 03:07:41;;;;;;;;;;;9.00;99.90;;;;;;8389361;28;19925;-75
2023/04/23 03:11:42;;;;;;;;;;;9.00;99.90;;;;;;8382790;28;19928;-76
2023/04/23 03:15:44;;;;;;;;;;;9.00;99.90;;;;;;8384847;28;19957;-75
2023/04/23 03:19:46;;;;;;;;;;;9.00;99.90;;;;;;8397816;28;20402;-75
2023/04/23 03:23:47;;;;;;;;;;;9.10;99.90;;;;;;8386866;28;19925;-75
2023/04/23 03:27:49;;;;;;;;;;;9.10;99.90;;;;;;8388924;28;19925;-75
2023/04/23 03:31:51;;;;;;;;;;;9.10;99.90;;;;;;8390529;28;20295;-75
2023/04/23 03:35:52;;;;;;;;;;;9.10;99.90;;;;;;8401305;28;19964;-75
2023/04/23 04:00:21;;;;;;;;;;;9.00;99.90;;;;;;8401352;28;20015;-75
2023/04/23 04:04:22;;;;;;;;;;;8.90;99.90;;;;;;8391737;28;19940;-75
2023/04/23 04:08:25;;;;;;;;;;;8.90;99.90;;;;;;8384417;28;19983;-75
2023/04/23 04:12:28;;;;;;;;;;;8.90;99.90;;;;;;8387543;28;19931;-75
2023/04/23 04:16:29;;;;;;;;;;;8.90;99.90;;;;;;8389293;28;20300;-75
2023/04/23 04:20:31;;;;;;;;;;;8.80;99.90;;;;;;8404317;28;19925;-76
2023/04/23 04:24:32;;;;;;;;;;;8.80;99.90;;;;;;8393587;28;20295;-75
2023/04/23 04:28:36;;;;;;;;;;;8.80;99.90;;;;;;8390325;28;20415;-75
2023/04/23 04:32:39;;;;;;;;;;;8.80;99.90;;;;;;8390010;28;19925;-75
2023/04/23 04:36:41;;;;;;;;;;;8.80;99.90;;;;;;8385965;28;19924;-76
2023/04/23 04:40:42;;;;;;;;;;;8.80;99.90;;;;;;8394193;28;19929;-76
2023/04/23 04:44:44;;;;;;;;;;;8.80;99.90;;;;;;8382800;28;19947;-74
2023/04/23 04:48:46;;;;;;;;;;;8.80;99.90;;;;;;8392792;28;19934;-75
2023/04/23 04:52:48;;;;;;;;;;;8.80;99.90;;;;;;8391434;28;19929;-75
2023/04/23 04:56:49;;;;;;;;;;;8.80;99.90;;;;;;8382716;28;19933;-75
2023/04/23 05:00:51;;;;;;;;;;;8.90;99.90;;;;;;8403138;28;19975;-75
2023/04/23 05:04:53;;;;;;;;;;;8.90;99.90;;;;;;8394174;28;19930;-75
2023/04/23 05:08:54;;;;;;;;;;;8.90;99.90;;;;;;8387173;28;19929;-75
2023/04/23 05:12:56;;;;;;;;;;;8.90;99.90;;;;;;8389116;28;20410;-75
2023/04/23 05:16:58;;;;;;;;;;;8.80;99.90;;;;;;8385751;28;20408;-76
2023/04/23 05:20:59;;;;;;;;;;;8.80;99.90;;;;;;8396899;28;19928;-76
2023/04/23 05:25:01;;;;;;;;;;;8.80;99.90;;;;;;8396718;28;19924;-75
2023/04/23 05:29:03;;;;;;;;;;;8.90;99.90;;;;;;8406794;28;20011;-76
2023/04/23 05:33:04;;;;;;;;;;;8.90;99.90;;;;;;8395727;28;19972;-76
2023/04/23 05:37:06;;;;;;;;;;;9.00;99.90;;;;;;8394280;28;19924;-76
2023/04/23 05:41:08;;;;;;;;;;;9.10;99.90;;;;;;8428035;28;19944;-76
2023/04/23 05:45:10;;;;;;;;;;;9.30;99.90;;;;;;8393778;28;20287;-76
2023/04/23 05:49:11;;;;;;;;;;;9.40;99.90;;;;;;8390653;28;20372;-76
2023/04/23 05:53:13;;;;;;;;;;;9.50;99.90;;;;;;8393949;28;19939;-76
2023/04/23 05:57:15;;;;;;;;;;;9.70;99.90;;;;;;8394672;28;19928;-76
2023/04/23 06:01:16;;;;;;;;;;;9.80;99.90;;;;;;8392070;28;19931;-76
2023/04/23 06:05:18;;;;;;;;;;;10.00;99.90;;;;;;8388761;28;19933;-76
2023/04/23 06:09:20;;;;;;;;;;;10.10;99.90;;;;;;8384231;28;19967;-76
2023/04/23 06:13:21;;;;;;;;;;;10.20;99.90;;;;;;8405273;28;19963;-76
2023/04/23 06:17:23;;;;;;;;;;;10.30;99.90;;;;;;8385204;28;19925;-76
2023/04/23 06:21:26;;;;;;;;;;;10.40;99.90;;;;;;8389720;28;20098;-76
2023/04/23 06:25:28;;;;;;;;;;;10.50;99.90;;;;;;8383848;28;19932;-76
2023/04/23 06:29:29;;;;;;;;;;;10.60;99.90;;;;;;8388868;28;19928;-76
2023/04/23 06:33:31;;;;;;;;;;;10.70;99.90;;;;;;8387897;28;20281;-77
2023/04/23 06:37:33;;;;;;;;;;;10.80;99.90;;;;;;8385902;28;20614;-76
2023/04/23 06:41:34;;;;;;;;;;;10.90;99.90;;;;;;8392325;28;20019;-76
2023/04/23 06:45:36;;;;;;;;;;;11.00;99.90;;;;;;8392025;28;19928;-76
2023/04/23 06:49:38;;;;;;;;;;;11.20;99.90;;;;;;8422598;28;19931;-76
2023/04/23 06:53:40;;;;;;;;;;;11.30;99.90;;;;;;8389426;28;19931;-76
2023/04/23 06:57:42;;;;;;;;;;;11.40;99.90;;;;;;8387913;28;20284;-76
2023/04/23 07:01:43;;;;;;;;;;;11.60;99.90;;;;;;8388922;28;19931;-76
2023/04/23 07:05:45;;;;;;;;;;;11.70;99.90;;;;;;8385115;28;19932;-77
2023/04/23 07:09:47;;;;;;;;;;;11.90;99.90;;;;;;8391723;28;20336;-76
2023/04/23 07:13:48;;;;;;;;;;;12.00;99.90;;;;;;8399659;28;19924;-76
2023/04/23 07:17:50;;;;;;;;;;;12.20;99.90;;;;;;8404810;28;19924;-76
2023/04/23 07:21:52;;;;;;;;;;;12.30;99.90;;;;;;8403796;28;19931;-76
2023/04/23 07:25:54;;;;;;;;;;;12.40;99.90;;;;;;8388929;28;19935;-76
2023/04/23 07:29:56;;;;;;;;;;;12.50;99.90;;;;;;8394633;28;19928;-76
2023/04/23 07:33:57;;;;;;;;;;;12.70;99.90;;;;;;8387747;28;19925;-76
2023/04/23 07:37:59;;;;;;;;;;;12.80;99.90;;;;;;8391225;28;20348;-75
2023/04/23 07:42:01;;;;;;;;;;;13.00;99.90;;;;;;8397288;28;19924;-77
2023/04/23 07:46:03;;;;;;;;;;;13.00;99.90;;;;;;8392884;28;19924;-76
2023/04/23 07:50:05;;;;;;;;;;;13.10;99.90;;;;;;8395870;28;19932;-76
2023/04/23 07:54:07;;;;;;;;;;;13.20;99.90;;;;;;8394420;28;20700;-77
2023/04/23 07:58:09;;;;;;;;;;;13.40;99.90;;;;;;8389035;28;19934;-76
2023/04/23 08:02:11;;;;;;;;;;;13.40;99.90;;;;;;8393876;28;19924;-76
2023/04/23 08:06:13;;;;;;;;;;;13.60;99.90;;;;;;8376359;28;20373;-77
2023/04/23 08:10:14;;;;;;;;;;;13.70;99.90;;;;;;8401449;28;19939;-76
2023/04/23 08:14:16;;;;;;;;;;;13.80;99.90;;;;;;8419302;27;19928;-76
2023/04/23 08:18:18;;;;;;;;;;;14.00;99.90;;;;;;8388791;28;19936;-76
2023/04/23 08:22:20;;;;;;;;;;;14.10;99.90;;;;;;8392385;28;20391;-76
2023/04/23 08:26:22;;;;;;;;;;;14.20;99.90;;;;;;8407145;28;20040;-76
2023/04/23 08:30:24;;;;;;;;;;;14.30;99.90;;;;;;8398585;28;19928;-75
2023/04/23 08:34:25;;;;;;;;;;;14.40;99.90;;;;;;8387816;28;19929;-76
2023/04/23 08:38:27;;;;;;;;;;;14.40;99.90;;;;;;8395511;28;19924;-76
2023/04/23 08:42:36;;;;;;;;;;;14.60;99.90;;;;;;8394531;28;20399;-76
2023/04/23 08:46:40;;;;;;;;;;;14.70;99.90;;;;;;8392030;28;19928;-76
2023/04/23 08:50:43;;;;;;;;;;;14.70;99.90;;;;;;8394223;28;19932;-76
2023/04/23 08:54:46;;;;;;;;;;;14.90;99.90;;;;;;8393155;28;19933;-76
2023/04/23 08:58:49;;;;;;;;;;;15.00;99.90;;;;;;8399369;28;19983;-76
2023/04/23 09:02:51;;;;;;;;;;;15.20;99.90;;;;;;8396854;28;19925;-76
2023/04/23 09:06:54;;;;;;;;;;;15.40;99.90;;;;;;8400003;28;19977;-75
2023/04/23 09:10:58;;;;;;;;;;;15.40;99.90;;;;;;8390332;28;20347;-74
2023/04/23 09:15:01;;;;;;;;;;;15.50;99.90;;;;;;8399574;28;20398;-76
2023/04/23 09:19:02;;;;;;;;;;;15.60;99.90;;;;;;8395036;28;19924;-76
2023/04/23 09:23:07;;;;;;;;;;;15.70;99.90;;;;;;8390384;28;19928;-76
2023/04/23 09:27:09;;;;;;;;;;;15.80;99.90;;;;;;8399762;28;19979;-75
2023/04/23 09:31:11;;;;;;;;;;;15.90;99.90;;;;;;8397360;28;20299;-76
2023/04/23 09:35:14;;;;;;;;;;;15.90;99.90;;;;;;8402255;28;19931;-75
2023/04/23 09:39:17;;;;;;;;;;;16.10;99.90;;;;;;8395988;28;19939;-76
2023/04/23 09:43:18;;;;;;;;;;;16.30;99.90;;;;;;8394955;28;19933;-76
2023/04/23 09:47:20;;;;;;;;;;;16.30;99.90;;;;;;8403211;28;19928;-76
2023/04/23 09:51:24;;;;;;;;;;;16.40;99.90;;;;;;8402207;28;19933;-76
2023/04/23 09:55:29;;;;;;;;;;;16.60;99.90;;;;;;8393938;28;20295;-75
2023/04/23 09:59:31;;;;;;;;;;;16.90;99.90;;;;;;8397610;28;19972;-76
2023/04/23 10:03:52;;;;;;;;;;;17.10;99.90;;;;;;8396497;28;19925;-75
2023/04/23 10:07:56;;;;;;;;;;;17.10;99.90;;;;;;8393188;28;19931;-75
2023/04/23 10:12:01;;;;;;;;;;;17.20;99.90;;;;;;8387362;28;19960;-75
2023/04/23 10:16:03;;;;;;;;;;;17.30;99.90;;;;;;8396009;28;19964;-76
2023/04/23 10:20:20;;;;;;;;;;;17.30;99.90;;;;;;8393434;28;19924;-75
2023/04/23 10:24:23;;;;;;;;;;;17.60;99.90;;;;;;8392291;28;20288;-75
2023/04/23 10:28:28;;;;;;;;;;;17.80;99.90;;;;;;8386919;28;19956;-75
2023/04/23 10:32:29;;;;;;;;;;;18.00;99.90;;;;;;8392475;28;19936;-75
2023/04/23 10:36:35;;;;;;;;;;;17.90;99.90;;;;;;8393209;28;19931;-75
2023/04/23 10:40:38;;;;;;;;;;;17.90;99.90;;;;;;8382036;28;20283;-76
2023/04/23 10:44:41;;;;;;;;;;;17.70;99.90;;;;;;8391336;28;19972;-75
2023/04/23 10:49:05;;;;;;;;;;;17.60;99.90;;;;;;8404449;28;20398;-75
2023/04/23 10:53:16;;;;;;;;;;;17.70;99.90;;;;;;8380961;28;19929;-76
2023/04/23 10:57:19;;;;;;;;;;;17.80;99.90;;;;;;8383722;28;19932;-75
2023/04/23 11:01:27;;;;;;;;;;;17.80;99.90;;;;;;8392177;28;19925;-76
2023/04/23 11:05:29;;;;;;;;;;;18.00;99.90;;;;;;8376659;28;19971;-75
2023/04/23 11:09:35;;;;;;;;;;;18.20;99.90;;;;;;8396966;28;20265;-75
2023/04/23 11:13:49;;;;;;;;;;;18.20;99.90;;;;;;8377671;28;20407;-75
2023/04/23 11:17:51;;;;;;;;;;;18.20;99.90;;;;;;8375069;28;21200;-75
2023/04/23 11:21:57;;;;;;;;;;;18.00;99.90;;;;;;8378593;28;20027;-75
2023/04/23 11:25:59;;;;;;;;;;;18.00;99.90;;;;;;8366956;28;19939;-75
2023/04/23 11:30:01;;;;;;;;;;;18.10;99.90;;;;;;8383913;28;20736;-75
2023/04/23 11:34:03;;;;;;;;;;;18.00;99.90;;;;;;8400850;28;19930;-76
2023/04/23 11:38:07;;;;;;;;;;;18.00;99.90;;;;;;8387371;28;20368;-76
2023/04/23 11:42:12;;;;;;;;;;;18.20;99.90;;;;;;8372393;28;19940;-76
2023/04/23 11:46:14;;;;;;;;;;;18.50;99.90;;;;;;8367674;28;19951;-75
2023/04/23 11:50:17;;;;;;;;;;;18.60;99.90;;;;;;8367574;28;20210;-76
2023/04/23 11:54:23;;;;;;;;;;;18.70;99.90;;;;;;8364019;28;19976;-75
2023/04/23 11:58:25;;;;;;;;;;;18.60;99.90;;;;;;8359867;28;19924;-75
2023/04/23 12:02:27;;;;;;;;;;;18.60;99.90;;;;;;8365232;28;19932;-76
2023/04/23 12:06:29;;;;;;;;;;;18.60;99.90;;;;;;8382522;28;19956;-75
2023/04/23 12:10:30;;;;;;;;;;;18.50;99.90;;;;;;8372974;28;19928;-75
2023/04/23 12:14:32;;;;;;;;;;;18.40;99.90;;;;;;8383156;28;20364;-75
2023/04/23 12:18:38;;;;;;;;;;;18.50;99.90;;;;;;8369884;28;19928;-75
2023/04/23 12:22:40;;;;;;;;;;;18.60;99.90;;;;;;8363216;28;19925;-75
2023/04/23 12:26:45;;;;;;;;;;;18.80;99.90;;;;;;8364834;28;19932;-75
2023/04/23 12:30:46;;;;;;;;;;;18.90;99.90;;;;;;8363764;28;20019;-75
2023/04/23 12:34:52;;;;;;;;;;;19.00;99.90;;;;;;8365002;28;19991;-75
2023/04/23 12:38:53;;;;;;;;;;;19.20;99.90;;;;;;8362746;28;19925;-76
2023/04/23 12:42:55;;;;;;;;;;;19.20;99.90;;;;;;8393788;28;19935;-75
2023/04/23 12:46:58;;;;;;;;;;;19.30;99.90;;;;;;8359845;28;20390;-75
2023/04/23 12:50:59;;;;;;;;;;;19.40;99.90;;;;;;8360461;28;20403;-75
2023/04/23 12:55:03;;;;;;;;;;;19.50;99.90;;;;;;8361771;28;20406;-75
2023/04/23 12:59:05;;;;;;;;;;;19.50;99.90;;;;;;8369366;28;20484;-76
2023/04/23 13:03:07;;;;;;;;;;;19.30;99.90;;;;;;8363402;28;19928;-75
2023/04/23 13:07:09;;;;;;;;;;;19.00;99.90;;;;;;8363276;28;19933;-75
2023/04/23 13:11:10;;;;;;;;;;;18.80;99.90;;;;;;8364419;28;21155;-75
2023/04/23 13:15:12;;;;;;;;;;;18.60;99.90;;;;;;8372523;28;19929;-76
2023/04/23 13:19:15;;;;;;;;;;;18.50;99.90;;;;;;8367965;28;20317;-76
2023/04/23 13:23:17;;;;;;;;;;;18.40;99.90;;;;;;8394365;28;20020;-75
2023/04/23 13:27:19;;;;;;;;;;;18.30;99.90;;;;;;8369790;28;19928;-75
2023/04/23 13:31:20;;;;;;;;;;;18.10;99.90;;;;;;8362897;28;20277;-75
2023/04/23 13:35:22;;;;;;;;;;;18.10;99.90;;;;;;8362391;28;20016;-75
2023/04/23 13:39:24;;;;;;;;;;;18.20;99.90;;;;;;8366022;28;20372;-75
2023/04/23 13:43:25;;;;;;;;;;;18.30;99.90;;;;;;8364669;28;19925;-75
2023/04/23 13:47:30;;;;;;;;;;;18.50;99.90;;;;;;8366790;28;20016;-75
2023/04/23 13:51:32;;;;;;;;;;;18.70;99.90;;;;;;8367235;28;20384;-75
2023/04/23 13:55:37;;;;;;;;;;;18.90;99.90;;;;;;8368945;28;19928;-75
2023/04/23 13:59:38;;;;;;;;;;;19.00;99.90;;;;;;8365766;28;19968;-75
2023/04/23 14:03:40;;;;;;;;;;;19.10;99.90;;;;;;8363299;28;20396;-75
2023/04/23 14:07:42;;;;;;;;;;;19.10;99.90;;;;;;8368287;28;19939;-76
2023/04/23 14:11:44;;;;;;;;;;;18.90;99.90;;;;;;8383848;28;19924;-75
2023/04/23 14:15:45;;;;;;;;;;;18.60;99.90;;;;;;8368728;28;20031;-76
2023/04/23 14:19:49;;;;;;;;;;;18.40;99.90;;;;;;8369528;28;20200;-76
2023/04/23 14:23:53;;;;;;;;;;;18.20;99.90;;;;;;8400232;28;19936;-76
2023/04/23 14:28:00;;;;;;;;;;;18.10;99.90;;;;;;8365316;28;20372;-76
2023/04/23 14:32:02;;;;;;;;;;;18.10;99.90;;;;;;8367081;28;20317;-76
2023/04/23 14:36:04;;;;;;;;;;;18.00;99.90;;;;;;8401342;27;19982;-75
2023/04/23 14:40:06;;;;;;;;;;;17.90;99.90;;;;;;8369956;28;19968;-76
2023/04/23 14:44:07;;;;;;;;;;;17.60;99.90;;;;;;8368704;28;20027;-76
2023/04/23 14:48:09;;;;;;;;;;;17.10;99.90;;;;;;8365790;28;19928;-74
2023/04/23 14:52:11;;;;;;;;;;;16.60;99.90;;;;;;8397795;28;19928;-75
2023/04/23 14:56:13;;;;;;;;;;;16.00;99.90;;;;;;8366247;28;19970;-76
2023/04/23 15:00:15;;;;;;;;;;;15.50;99.90;;;;;;8374993;28;19982;-76
2023/04/23 15:04:17;;;;;;;;;;;15.10;99.90;;;;;;8372985;28;20011;-76
2023/04/23 15:08:19;;;;;;;;;;;14.40;99.90;;;;;;8365707;28;20280;-76
2023/04/23 15:12:40;;;;;;;;;;;13.80;99.90;;;;;;8364244;28;20330;-76
2023/04/23 15:16:41;;;;;;;;;;;13.50;99.90;;;;;;8365346;28;19971;-76
2023/04/23 15:20:49;;;;;;;;;;;13.40;99.90;;;;;;8372255;28;20336;-76
2023/04/23 15:24:51;;;;;;;;;;;13.40;99.90;;;;;;8363248;28;19963;-76
2023/04/23 15:28:52;;;;;;;;;;;13.40;99.90;;;;;;8373755;28;19947;-76
2023/04/23 15:32:55;;;;;;;;;;;13.30;99.90;;;;;;8364058;28;19928;-76
2023/04/23 15:36:56;;;;;;;;;;;13.20;99.90;;;;;;8367317;28;20669;-76
2023/04/23 15:40:58;;;;;;;;;;;13.20;99.90;;;;;;8367880;28;20014;-75
2023/04/23 15:45:00;;;;;;;;;;;13.20;99.90;;;;;;8365676;28;19932;-75
2023/04/23 15:49:04;;;;;;;;;;;13.20;99.90;;;;;;8367138;28;19924;-75
2023/04/23 15:53:06;;;;;;;;;;;13.20;99.90;;;;;;8365917;28;19979;-76
2023/04/23 15:57:07;;;;;;;;;;;13.20;99.90;;;;;;8364463;28;20047;-76
2023/04/23 16:01:10;;;;;;;;;;;13.10;99.90;;;;;;8363552;28;19965;-75
2023/04/23 16:05:12;;;;;;;;;;;13.00;99.90;;;;;;8362404;28;20597;-75
2023/04/23 16:09:14;;;;;;;;;;;13.00;99.90;;;;;;8370014;28;20692;-76
2023/04/23 16:13:15;;;;;;;;;;;13.00;99.90;;;;;;8364230;28;20031;-76
2023/04/23 16:17:17;;;;;;;;;;;13.10;99.90;;;;;;8366957;28;19925;-76
2023/04/23 16:21:19;;;;;;;;;;;13.10;99.90;;;;;;8381836;28;19929;-76
2023/04/23 16:25:21;;;;;;;;;;;13.20;99.90;;;;;;8369278;28;19932;-76
2023/04/23 16:29:22;;;;;;;;;;;13.30;99.90;;;;;;8363491;28;20023;-76
2023/04/23 16:33:26;;;;;;;;;;;13.30;99.90;;;;;;8368207;28;19947;-76
2023/04/23 16:37:27;;;;;;;;;;;13.30;99.90;;;;;;8363735;28;19939;-76
2023/04/23 16:41:30;;;;;;;;;;;13.30;99.90;;;;;;8374071;28;20369;-76
2023/04/23 16:45:33;;;;;;;;;;;13.40;99.90;;;;;;8361969;28;20027;-76
2023/04/23 16:49:35;;;;;;;;;;;13.40;99.90;;;;;;8364356;28;20024;-76
2023/04/23 16:53:37;;;;;;;;;;;13.30;99.90;;;;;;8367369;28;19929;-76
2023/04/23 16:57:38;;;;;;;;;;;13.30;99.90;;;;;;8367413;28;19928;-76
2023/04/23 17:01:40;;;;;;;;;;;13.30;99.90;;;;;;8389744;28;19929;-77
2023/04/23 17:05:42;;;;;;;;;;;13.30;99.90;;;;;;8364783;28;19928;-76
2023/04/23 17:09:44;;;;;;;;;;;13.30;99.90;;;;;;8365373;28;20371;-76
2023/04/23 17:13:46;;;;;;;;;;;13.20;99.90;;;;;;8364592;28;19925;-76
2023/04/23 17:17:47;;;;;;;;;;;13.30;99.90;;;;;;8370112;28;19924;-77
2023/04/23 17:21:49;;;;;;;;;;;13.30;99.90;;;;;;8370566;28;20025;-76
2023/04/23 17:25:51;;;;;;;;;;;13.30;99.90;;;;;;8381061;28;19925;-76
2023/04/23 17:29:52;;;;;;;;;;;13.30;99.90;;;;;;8375410;28;20587;-76
2023/04/23 17:33:55;;;;;;;;;;;13.30;99.90;;;;;;8381079;28;19928;-76
2023/04/23 17:37:56;;;;;;;;;;;13.40;99.90;;;;;;8375046;28;19932;-76
2023/04/23 17:41:58;;;;;;;;;;;13.40;99.90;;;;;;8362589;28;20023;-76
2023/04/23 17:46:00;;;;;;;;;;;13.40;99.90;;;;;;8370852;28;19931;-76
2023/04/23 17:50:03;;;;;;;;;;;13.30;99.90;;;;;;8365089;28;20001;-77
2023/04/23 17:54:05;;;;;;;;;;;13.20;99.90;;;;;;8367735;28;19925;-76
2023/04/23 17:58:08;;;;;;;;;;;13.20;99.90;;;;;;8370828;28;19975;-77
2023/04/23 18:02:10;;;;;;;;;;;13.10;99.90;;;;;;8367710;28;20830;-76
2023/04/23 18:06:12;;;;;;;;;;;13.10;99.90;;;;;;8377144;28;19933;-76
2023/04/23 18:10:13;;;;;;;;;;;13.00;99.90;;;;;;8368725;28;20003;-76
2023/04/23 18:14:15;;;;;;;;;;;13.00;99.90;;;;;;8359414;28;20289;-76
2023/04/23 18:18:17;;;;;;;;;;;13.00;99.90;;;;;;8399608;28;20375;-76
2023/04/23 18:22:20;;;;;;;;;;;13.00;99.90;;;;;;8364384;28;20028;-77
2023/04/23 18:26:22;;;;;;;;;;;12.90;99.90;;;;;;8363621;28;19952;-76
2023/04/23 18:30:24;;;;;;;;;;;12.90;99.90;;;;;;8370183;28;19936;-77
2023/04/23 18:34:29;;;;;;;;;;;12.80;99.90;;;;;;8367006;28;19960;-76
2023/04/23 18:38:36;;;;;;;;;;;12.80;99.90;;;;;;8369053;28;20391;-76
2023/04/23 18:42:38;;;;;;;;;;;12.80;99.90;;;;;;8386261;28;19928;-76
2023/04/23 18:46:39;;;;;;;;;;;12.80;99.90;;;;;;8371348;28;20717;-76
2023/04/23 18:50:47;;;;;;;;;;;12.70;99.90;;;;;;8376383;28;19924;-76
2023/04/23 18:54:49;;;;;;;;;;;12.70;99.90;;;;;;8373486;28;20959;-77
2023/04/23 18:58:51;;;;;;;;;;;12.60;99.90;;;;;;8380482;28;19940;-76
2023/04/23 19:02:52;;;;;;;;;;;12.60;99.90;;;;;;8390713;28;19925;-76
2023/04/23 19:12:16;;;;;;;;;;;12.60;99.90;;;;;;8367117;28;19924;-76
2023/04/23 19:27:02;;;;;;;;;;;12.50;99.90;;;;;;8364748;28;20268;-76
2023/04/23 19:31:04;;;;;;;;;;;12.50;99.90;;;;;;8387488;28;20009;-76
2023/04/23 19:35:06;;;;;;;;;;;12.50;99.90;;;;;;8375060;28;19931;-76
2023/04/23 19:39:09;;;;;;;;;;;12.50;99.90;;;;;;8366734;28;19930;-76
2023/04/23 19:43:10;;;;;;;;;;;12.50;99.90;;;;;;8365804;28;19932;-76
2023/04/23 19:47:15;;;;;;;;;;;12.50;99.90;;;;;;8373033;28;19929;-76
2023/04/23 19:51:17;;;;;;;;;;;12.50;99.90;;;;;;8386203;28;19928;-76
2023/04/23 19:55:24;;;;;;;;;;;12.50;99.90;;;;;;8364433;28;19972;-76
2023/04/23 19:59:26;;;;;;;;;;;12.40;99.90;;;;;;8363997;28;19964;-76
2023/04/23 20:03:28;;;;;;;;;;;12.40;99.90;;;;;;8370132;28;19929;-76
2023/04/23 20:07:30;;;;;;;;;;;12.40;99.90;;;;;;8359709;28;20553;-76
2023/04/23 20:11:33;;;;;;;;;;;12.30;99.90;;;;;;8362691;28;19970;-76
2023/04/23 20:15:35;;;;;;;;;;;12.30;99.90;;;;;;8371057;28;20394;-76
2023/04/23 20:19:37;;;;;;;;;;;12.20;99.90;;;;;;8367414;28;20392;-76
2023/04/23 20:23:38;;;;;;;;;;;12.20;99.90;;;;;;8370781;28;19936;-76
2023/04/23 20:27:40;;;;;;;;;;;12.10;99.90;;;;;;8364281;28;19947;-76
2023/04/23 20:31:42;;;;;;;;;;;12.00;99.90;;;;;;8367076;28;19931;-76
2023/04/23 20:35:43;;;;;;;;;;;12.00;99.90;;;;;;8362994;28;20372;-76
2023/04/23 20:39:46;;;;;;;;;;;12.00;99.90;;;;;;8365395;28;19925;-76
2023/04/23 20:43:49;;;;;;;;;;;12.00;99.90;;;;;;8365018;28;20287;-76
2023/04/23 20:47:51;;;;;;;;;;;12.00;99.90;;;;;;8361107;28;19940;-76
2023/04/23 20:51:52;;;;;;;;;;;12.00;99.90;;;;;;8367102;28;19925;-76
2023/04/23 20:55:57;;;;;;;;;;;12.00;99.90;;;;;;8367521;28;19947;-76
2023/04/23 20:59:58;;;;;;;;;;;12.00;99.90;;;;;;8374142;28;20394;-76
2023/04/23 21:04:00;;;;;;;;;;;12.00;99.90;;;;;;8384485;28;20020;-76
2023/04/23 21:08:02;;;;;;;;;;;12.00;99.90;;;;;;8377206;28;19972;-76
2023/04/23 21:12:04;;;;;;;;;;;12.00;99.90;;;;;;8373267;28;19929;-76
2023/04/23 21:16:06;;;;;;;;;;;12.00;99.90;;;;;;8391894;28;19931;-76
2023/04/23 21:20:08;;;;;;;;;;;12.00;99.90;;;;;;8391521;28;19932;-76
2023/04/23 21:24:10;;;;;;;;;;;12.00;99.90;;;;;;8390121;28;19933;-76
2023/04/23 21:28:14;;;;;;;;;;;12.00;99.90;;;;;;8380135;28;19929;-76
2023/04/23 21:32:16;;;;;;;;;;;12.00;99.90;;;;;;8388839;28;19988;-76
2023/04/23 21:36:17;;;;;;;;;;;12.00;99.90;;;;;;8414127;27;19925;-76
2023/04/23 21:40:19;;;;;;;;;;;12.00;99.90;;;;;;8427891;28;19967;-76
2023/04/23 21:44:21;;;;;;;;;;;12.00;99.90;;;;;;8397900;28;20297;-76
2023/04/23 21:48:22;;;;;;;;;;;11.90;99.90;;;;;;8385256;28;20011;-76
2023/04/23 21:52:25;;;;;;;;;;;11.70;99.90;;;;;;8395210;28;20368;-76
2023/04/23 21:56:26;;;;;;;;;;;11.50;99.90;;;;;;8398181;28;20344;-76
2023/04/23 22:00:28;;;;;;;;;;;11.40;99.90;;;;;;8411279;28;20403;-76
2023/04/23 22:04:30;;;;;;;;;;;11.30;99.90;;;;;;8384474;28;20411;-76
2023/04/23 22:08:31;;;;;;;;;;;11.20;99.90;;;;;;8386640;28;20423;-77
2023/04/23 22:12:33;;;;;;;;;;;11.10;99.90;;;;;;8398532;28;19979;-76
2023/04/23 22:16:35;;;;;;;;;;;11.10;99.90;;;;;;8389366;28;19924;-76
2023/04/23 22:20:37;;;;;;;;;;;11.10;99.90;;;;;;8391645;28;20303;-76
2023/04/23 22:24:39;;;;;;;;;;;11.10;99.90;;;;;;8395263;28;19931;-76
2023/04/23 22:28:41;;;;;;;;;;;11.10;99.90;;;;;;8393996;28;20076;-76
2023/04/23 22:32:43;;;;;;;;;;;11.10;99.90;;;;;;8395249;28;19932;-76
2023/04/23 22:36:44;;;;;;;;;;;11.10;99.90;;;;;;8383475;28;19924;-76
2023/04/23 22:40:46;;;;;;;;;;;10.90;99.90;;;;;;8389091;28;19956;-76
2023/04/23 22:44:48;;;;;;;;;;;10.70;99.90;;;;;;8398640;28;19924;-76
2023/04/23 22:48:51;;;;;;;;;;;10.40;99.90;;;;;;8395517;28;19925;-76
2023/04/23 22:52:53;;;;;;;;;;;10.30;99.90;;;;;;8419024;27;19925;-76
2023/04/23 22:56:54;;;;;;;;;;;10.20;99.90;;;;;;8403044;28;20628;-76
2023/04/23 23:00:56;;;;;;;;;;;10.20;99.90;;;;;;8393095;28;19931;-76
2023/04/23 23:04:58;;;;;;;;;;;10.10;99.90;;;;;;8377479;28;19978;-75
2023/04/23 23:08:59;;;;;;;;;;;10.10;99.90;;;;;;8389514;28;20296;-75
2023/04/23 23:13:01;;;;;;;;;;;10.10;99.90;;;;;;8397946;28;19932;-75
2023/04/23 23:17:04;;;;;;;;;;;10.10;99.90;;;;;;8384061;28;19924;-76
2023/04/23 23:21:06;;;;;;;;;;;10.10;99.90;;;;;;8380255;28;19935;-76
2023/04/23 23:25:08;;;;;;;;;;;10.00;99.90;;;;;;8395539;28;19964;-75
2023/04/23 23:29:09;;;;;;;;;;;9.90;99.90;;;;;;8387970;28;19925;-76
2023/04/23 23:38:14;;;;;;;;;;;9.80;99.90;;;;;;8390025;28;20280;-76
2023/04/23 23:42:16;;;;;;;;;;;9.80;99.90;;;;;;8390789;28;19924;-76
